Time;durP1;ratioP1;P1;durP2;ratioP2;P2;SDS_P1;SDS_P2;PMS_P1;PMS_P2;Temp;Humidity;BMP_temperature;BMP_pressure;BME280_temperature;BME280_humidity;BME280_pressure;Samples;Min_cycle;Max_cycle;Signal;HPM_P1;HPM_P2
2022/08/18 00:00:17;;;;;;;24.70;22.10;;;;;;;23.08;65.65;100090.73;110164;1256;23036;-77
2022/08/18 00:03:07;;;;;;;24.60;22.10;;;;;;;23.06;65.62;100092.22;110497;1257;21932;-77
2022/08/18 00:05:55;;;;;;;25.30;22.70;;;;;;;23.04;65.64;100089.94;110192;1257;21968;-77
2022/08/18 00:08:27;;;;;;;24.80;22.20;;;;;;;23.01;65.91;100087.60;110330;1258;23683;-77
2022/08/18 00:10:57;;;;;;;25.60;22.90;;;;;;;22.99;65.90;100091.02;110365;1257;21998;-77
2022/08/18 00:13:26;;;;;;;26.20;23.80;;;;;;;22.99;66.15;100089.99;110302;1260;23049;-77
2022/08/18 00:15:56;;;;;;;27.90;25.10;;;;;;;22.98;66.09;100090.36;110113;1257;21965;-78
2022/08/18 00:18:25;;;;;;;26.50;24.00;;;;;;;22.97;66.36;100086.21;110227;1257;21941;-76
2022/08/18 00:20:54;;;;;;;25.30;23.00;;;;;;;22.97;66.57;100085.66;110809;1251;21959;-77
2022/08/18 00:23:24;;;;;;;24.40;21.90;;;;;;;22.97;66.47;100084.48;110866;1250;21961;-77
2022/08/18 00:25:54;;;;;;;26.20;23.40;;;;;;;22.97;66.51;100082.17;110879;1250;21966;-77
2022/08/18 00:28:23;;;;;;;25.40;22.90;;;;;;;22.97;66.50;100084.70;110774;1250;22016;-77
2022/08/18 00:30:54;;;;;;;27.40;24.70;;;;;;;22.96;66.65;100086.05;110788;1250;22928;-77
2022/08/18 00:33:23;;;;;;;25.10;22.80;;;;;;;22.96;66.67;100083.45;110328;1257;21978;-77
2022/08/18 00:35:55;;;;;;;25.70;23.20;;;;;;;22.93;66.66;100085.52;110138;1260;22149;-77
2022/08/18 00:38:25;;;;;;;25.70;23.20;;;;;;;22.91;66.87;100085.16;110472;1257;23792;-77
2022/08/18 00:40:55;;;;;;;24.60;22.20;;;;;;;22.89;66.79;100088.48;109716;1261;23687;-75
2022/08/18 00:43:43;;;;;;;26.50;24.10;;;;;;;22.87;66.84;100088.84;109572;1261;21979;-77
2022/08/18 00:46:24;;;;;;;26.20;23.70;;;;;;;22.84;67.11;100086.33;109957;1262;21956;-78
2022/08/18 00:48:55;;;;;;;25.60;22.70;;;;;;;22.84;67.27;100086.65;109345;1266;23810;-77
2022/08/18 00:51:46;;;;;;;24.00;21.90;;;;;;;22.82;67.21;100089.97;109359;1267;24303;-77
2022/08/18 00:54:30;;;;;;;25.90;23.30;;;;;;;22.78;67.38;100090.41;109155;1267;22323;-77
2022/08/18 00:57:05;;;;;;;;;;;;;;;22.76;67.54;100086.37;109378;1267;21962;-77
2022/08/18 00:59:57;;;;;;;22.30;20.60;;;;;;;22.68;67.69;100081.48;110222;1256;25438;-77
2022/08/18 01:02:32;;;;;;;25.30;23.00;;;;;;;22.67;67.66;100082.71;110318;1256;22065;-77
2022/08/18 01:05:08;;;;;;;25.20;22.70;;;;;;;22.68;67.62;100085.53;110581;1256;21962;-77
2022/08/18 01:07:44;;;;;;;25.90;23.10;;;;;;;22.67;67.59;100084.88;110830;1250;22371;-76
2022/08/18 01:10:21;;;;;;;25.10;22.40;;;;;;;22.65;67.73;100080.91;110042;1257;23156;-77
2022/08/18 01:12:57;;;;;;;24.30;22.40;;;;;;;22.63;67.85;100077.29;110191;1258;22029;-77
2022/08/18 01:15:27;;;;;;;24.00;22.10;;;;;;;22.62;68.12;100082.08;109679;1261;22769;-77
2022/08/18 01:24:13;;;;;;;24.00;21.90;;;;;;;22.55;68.26;100086.85;109200;1267;24322;-77
2022/08/18 01:26:49;;;;;;;25.30;23.00;;;;;;;22.54;68.39;100090.39;109190;1267;22026;-77
2022/08/18 01:29:19;;;;;;;25.80;23.50;;;;;;;22.55;68.51;100092.19;109576;1263;21973;-77
2022/08/18 01:31:55;;;;;;;26.60;24.10;;;;;;;22.56;68.29;100092.02;109718;1263;22013;-77
2022/08/18 01:34:27;;;;;;;24.10;22.10;;;;;;;22.54;68.15;100082.31;109662;1263;22749;-77
2022/08/18 01:37:00;;;;;;;25.80;23.20;;;;;;;22.51;68.12;100081.59;109603;1263;22748;-77
2022/08/18 01:39:30;;;;;;;24.50;22.40;;;;;;;22.49;68.30;100086.67;109074;1264;21977;-78
2022/08/18 01:42:21;;;;;;;26.40;24.20;;;;;;;22.46;68.27;100086.98;109499;1260;23605;-77
2022/08/18 01:44:54;;;;;;;26.00;23.90;;;;;;;22.45;68.41;100081.68;109757;1259;21968;-78
2022/08/18 01:47:23;;;;;;;25.30;23.00;;;;;;;22.43;68.47;100076.11;109975;1259;22013;-78
2022/08/18 01:49:53;;;;;;;25.40;22.90;;;;;;;22.40;68.37;100073.84;110094;1257;23674;-78
2022/08/18 01:52:28;;;;;;;25.80;23.60;;;;;;;22.38;68.45;100068.43;109769;1258;22032;-78
2022/08/18 01:55:02;;;;;;;27.70;25.40;;;;;;;22.35;68.44;100062.09;110030;1257;22958;-77
2022/08/18 01:57:43;;;;;;;27.70;25.10;;;;;;;22.30;68.52;100068.02;110166;1250;24341;-77
2022/08/18 02:00:16;;;;;;;27.50;24.60;;;;;;;22.25;68.72;100065.27;110554;1251;22017;-78
2022/08/18 02:02:50;;;;;;;27.00;24.50;;;;;;;22.20;68.68;100067.20;110615;1251;22044;-78
2022/08/18 02:05:42;;;;;;;27.00;24.60;;;;;;;22.16;68.90;100061.16;110725;1250;22974;-77
2022/08/18 02:08:11;;;;;;;26.80;24.20;;;;;;;22.14;69.06;100060.11;110617;1251;23048;-77
2022/08/18 02:10:41;;;;;;;25.40;22.90;;;;;;;22.13;68.99;100058.33;110785;1250;23309;-77
2022/08/18 02:13:11;;;;;;;28.00;24.50;;;;;;;22.10;69.11;100055.39;110263;1256;23115;-77
2022/08/18 02:15:41;;;;;;;27.10;24.30;;;;;;;22.08;69.34;100054.28;110260;1254;24282;-77
2022/08/18 02:18:22;;;;;;;28.10;25.20;;;;;;;22.07;69.37;100057.88;110051;1259;23139;-77
2022/08/18 02:21:16;;;;;;;25.10;22.70;;;;;;;22.04;69.53;100054.06;109936;1259;22430;-76
2022/08/18 02:23:48;;;;;;;27.90;25.50;;;;;;;22.02;69.53;100053.02;110009;1259;21975;-76
2022/08/18 02:26:22;;;;;;;28.60;26.00;;;;;;;21.99;69.59;100053.24;109694;1259;24391;-78
2022/08/18 02:28:51;;;;;;;26.10;23.60;;;;;;;21.98;69.72;100053.35;109899;1259;22936;-77
2022/08/18 02:31:24;;;;;;;26.40;24.20;;;;;;;21.99;69.93;100054.16;110035;1256;21958;-77
2022/08/18 02:33:54;;;;;;;30.10;27.50;;;;;;;21.98;69.86;100061.10;110366;1256;23738;-76
2022/08/18 02:36:26;;;;;;;29.70;27.00;;;;;;;21.97;69.79;100069.70;110424;1250;23172;-77
2022/08/18 02:38:55;;;;;;;29.20;26.80;;;;;;;21.94;69.77;100063.77;110772;1250;23751;-76
2022/08/18 02:41:28;;;;;;;31.60;28.90;;;;;;;21.88;69.58;100062.09;110807;1250;21968;-77
2022/08/18 02:43:58;;;;;;;31.10;28.50;;;;;;;21.79;69.70;100066.55;110540;1251;22505;-77
2022/08/18 02:46:28;;;;;;;32.20;29.30;;;;;;;21.72;70.11;100064.46;109902;1256;21987;-77
2022/08/18 02:48:59;;;;;;;34.80;30.00;;;;;;;21.67;70.31;100057.90;110212;1254;23039;-78
2022/08/18 02:51:29;;;;;;;31.30;28.60;;;;;;;21.65;70.51;100055.98;110366;1255;21966;-77
2022/08/18 02:53:59;;;;;;;34.20;31.20;;;;;;;21.65;70.91;100056.95;109319;1262;23026;-77
2022/08/18 02:56:33;;;;;;;33.90;31.00;;;;;;;21.65;70.84;100058.89;108942;1267;21983;-77
2022/08/18 02:59:16;;;;;;;33.90;30.70;;;;;;;21.62;70.97;100057.59;108730;1270;22015;-77
2022/08/18 03:01:50;;;;;;;35.40;32.30;;;;;;;21.60;71.04;100055.38;108749;1273;23813;-78
2022/08/18 03:04:28;;;;;;;36.10;32.50;;;;;;;21.57;71.10;100059.32;108718;1270;24300;-78
2022/08/18 03:07:03;;;;;;;34.80;31.90;;;;;;;21.53;71.06;100059.68;108742;1273;22606;-77
2022/08/18 03:09:33;;;;;;;35.00;31.80;;;;;;;21.49;71.24;100063.34;108731;1271;22038;-78
2022/08/18 03:12:03;;;;;;;35.90;32.90;;;;;;;21.47;71.56;100063.58;109125;1267;23040;-78
2022/08/18 03:14:34;;;;;;;36.70;33.20;;;;;;;21.46;71.55;100064.80;109463;1260;21969;-78
2022/08/18 03:17:07;;;;;;;34.80;31.60;;;;;;;21.44;71.63;100063.43;109184;1263;23057;-78
2022/08/18 03:19:37;;;;;;;33.60;30.40;;;;;;;21.46;71.82;100068.29;109911;1257;22990;-78
2022/08/18 03:22:10;;;;;;;34.40;31.40;;;;;;;21.47;71.83;100068.35;109569;1259;22021;-78
2022/08/18 03:24:59;;;;;;;34.40;31.60;;;;;;;21.48;71.78;100072.34;109945;1262;21975;-78
2022/08/18 03:27:29;;;;;;;35.40;31.80;;;;;;;21.49;71.74;100070.38;109904;1259;23691;-78
2022/08/18 03:29:59;;;;;;;34.10;30.90;;;;;;;21.48;71.55;100071.55;109075;1267;23722;-76
2022/08/18 03:32:31;;;;;;;34.00;31.10;;;;;;;21.48;71.68;100073.33;108752;1273;22002;-77
2022/08/18 03:35:01;;;;;;;32.40;29.60;;;;;;;21.49;71.73;100072.63;108930;1265;21967;-76
2022/08/18 03:37:30;;;;;;;33.60;30.50;;;;;;;21.48;71.71;100075.04;108854;1270;22096;-77
2022/08/18 03:39:59;;;;;;;33.90;30.90;;;;;;;21.47;71.53;100075.77;108827;1270;23631;-77
2022/08/18 03:42:29;;;;;;;34.00;31.10;;;;;;;21.43;71.53;100079.04;108706;1273;24288;-78
2022/08/18 03:44:58;;;;;;;33.70;30.50;;;;;;;21.41;71.78;100078.64;108541;1273;23056;-77
2022/08/18 03:47:27;;;;;;;37.30;33.90;;;;;;;21.44;71.89;100083.04;108727;1267;22319;-78
2022/08/18 03:50:01;;;;;;;31.50;29.00;;;;;;;21.43;71.98;100086.36;109264;1265;23623;-78
2022/08/18 03:52:38;;;;;;;32.90;29.50;;;;;;;21.44;71.98;100083.47;109228;1265;23088;-78
2022/08/18 03:55:40;;;;;;;31.60;28.80;;;;;;;21.42;72.00;100079.02;109357;1260;23678;-77
2022/08/18 03:58:13;;;;;;;31.60;28.80;;;;;;;21.44;72.13;100084.39;109016;1269;22488;-77
2022/08/18 04:00:42;;;;;;;31.20;28.70;;;;;;;21.47;72.13;100087.55;108729;1273;21983;-77
2022/08/18 04:03:19;;;;;;;29.80;27.20;;;;;;;21.49;72.01;100089.51;108326;1276;21996;-77
2022/08/18 04:05:57;;;;;;;32.00;29.20;;;;;;;21.51;72.06;100089.87;108493;1276;24365;-77
2022/08/18 04:08:29;;;;;;;31.30;28.60;;;;;;;21.53;72.07;100090.23;108308;1275;22008;-77
2022/08/18 04:11:03;;;;;;;30.30;27.80;;;;;;;21.55;71.93;100099.53;108456;1276;22129;-77
2022/08/18 04:13:41;;;;;;;32.20;29.20;;;;;;;21.58;72.05;100102.87;108416;1276;22002;-77
2022/08/18 04:16:39;;;;;;;30.40;27.90;;;;;;;21.61;71.90;100100.44;108641;1270;23670;-78
2022/08/18 04:19:39;;;;;;;31.20;28.20;;;;;;;21.60;71.92;100100.48;108686;1270;22751;-77
2022/08/18 04:22:50;;;;;;;31.60;28.90;;;;;;;21.60;71.92;100097.95;108825;1270;23077;-78
2022/08/18 04:25:38;;;;;;;;;;;;;;;;;;;;;
2022/08/18 04:28:23;;;;;;;30.90;28.00;;;;;;;21.63;71.93;100102.35;108640;1271;22315;-77
2022/08/18 04:31:12;;;;;;;32.60;29.50;;;;;;;21.65;71.97;100102.38;108899;1270;21983;-77
2022/08/18 04:34:31;;;;;;;30.80;28.30;;;;;;;21.67;72.06;100103.42;108874;1270;22053;-78
2022/08/18 04:37:25;;;;;;;31.40;28.40;;;;;;;21.73;71.96;100101.36;108979;1267;22040;-76
2022/08/18 04:43:24;;;;;;;30.60;27.60;;;;;;;21.80;71.77;100097.91;108817;1272;22774;-77
2022/08/18 04:46:57;;;;;;;30.10;27.00;;;;;;;21.86;71.90;100097.52;108034;1282;23634;-77
2022/08/18 04:51:05;;;;;;;29.90;26.90;;;;;;;21.93;71.78;100105.77;107192;1292;22484;-77
2022/08/18 04:54:32;;;;;;;;;;;;;;;;;;;;;
2022/08/18 05:01:10;;;;;;;;;;;;;;;;;;;;;
2022/08/18 05:04:17;;;;;;;28.90;26.20;;;;;;;22.21;71.16;100107.35;108312;1273;23069;-77
2022/08/18 05:06:47;;;;;;;29.10;26.70;;;;;;;22.22;70.89;100110.48;108485;1270;21984;-76
2022/08/18 05:12:47;;;;;;;29.30;26.50;;;;;;;22.32;70.94;100110.72;108551;1270;21998;-78
2022/08/18 05:15:19;;;;;;;28.40;25.70;;;;;;;22.40;70.91;100111.23;108830;1270;23737;-77
2022/08/18 05:17:46;;;;;;;29.30;26.80;;;;;;;22.48;70.69;100118.49;108789;1270;24293;-77
2022/08/18 05:20:13;;;;;;;28.10;25.30;;;;;;;22.56;70.57;100117.92;108707;1270;22062;-76
2022/08/18 05:22:50;;;;;;;27.50;24.90;;;;;;;22.65;70.48;100118.56;109304;1264;23677;-77
2022/08/18 05:25:30;;;;;;;25.90;23.20;;;;;;;22.74;70.03;100123.61;109651;1262;21992;-77
2022/08/18 05:28:00;;;;;;;25.50;22.50;;;;;;;22.84;70.01;100129.21;109385;1262;22348;-77
2022/08/18 05:30:30;;;;;;;25.90;23.20;;;;;;;22.95;69.57;100128.91;109010;1262;23596;-77
2022/08/18 05:33:02;;;;;;;24.00;21.30;;;;;;;23.04;69.44;100129.76;109311;1262;23046;-77
2022/08/18 05:35:48;;;;;;;25.50;22.90;;;;;;;23.13;69.19;100128.05;108998;1267;23104;-78
2022/08/18 05:38:41;;;;;;;25.50;23.00;;;;;;;23.23;68.91;100128.20;109104;1267;22557;-73
2022/08/18 05:41:32;;;;;;;24.90;22.60;;;;;;;23.33;68.52;100129.36;109142;1267;21993;-73
2022/08/18 05:44:26;;;;;;;24.60;22.20;;;;;;;23.44;68.45;100133.01;108929;1267;23592;-73
2022/08/18 05:47:10;;;;;;;24.40;22.30;;;;;;;23.56;68.08;100139.13;108445;1273;22429;-73
2022/08/18 05:49:48;;;;;;;25.70;22.60;;;;;;;23.68;68.09;100132.44;109178;1260;23794;-73
2022/08/18 05:52:48;;;;;;;25.00;22.20;;;;;;;23.81;67.76;100130.05;109646;1260;22235;-75
2022/08/18 05:58:45;;;;;;;25.20;21.50;;;;;;;24.14;67.05;100131.02;109643;1261;23574;-72
2022/08/18 06:01:35;;;;;;;25.10;21.90;;;;;;;24.33;66.80;100133.16;109189;1267;22603;-75
2022/08/18 06:04:41;;;;;;;21.80;19.60;;;;;;;24.56;66.37;100136.24;108950;1260;22060;-76
2022/08/18 06:07:38;;;;;;;25.30;20.00;;;;;;;24.81;65.93;100132.19;109869;1259;23024;-76
2022/08/18 06:10:10;;;;;;;22.30;20.00;;;;;;;25.05;65.32;100128.45;109747;1259;23565;-76
2022/08/18 06:12:50;;;;;;;21.60;19.40;;;;;;;25.28;64.56;100130.92;110003;1259;23681;-75
2022/08/18 06:15:35;;;;;;;21.00;18.40;;;;;;;25.52;63.95;100130.58;109212;1267;23155;-76
2022/08/18 06:18:57;;;;;;;20.50;17.70;;;;;;;25.74;63.47;100135.42;109237;1266;21991;-76
2022/08/18 06:21:46;;;;;;;18.50;16.80;;;;;;;25.98;62.70;100137.08;109802;1260;23029;-76
2022/08/18 06:24:28;;;;;;;19.40;17.40;;;;;;;26.16;61.78;100132.95;109960;1259;23607;-76
2022/08/18 06:27:54;;;;;;;20.40;18.40;;;;;;;26.35;61.49;100132.34;109762;1261;22078;-76
2022/08/18 06:30:41;;;;;;;18.80;16.40;;;;;;;26.60;61.20;100136.84;109273;1265;23739;-76
2022/08/18 06:33:49;;;;;;;20.70;17.90;;;;;;;26.83;60.71;100143.59;108666;1273;21991;-76
2022/08/18 06:36:53;;;;;;;18.80;17.20;;;;;;;27.08;59.82;100140.88;107522;1273;1541934;-76
2022/08/18 06:39:38;;;;;;;20.20;15.60;;;;;;;27.24;58.89;100143.48;108338;1273;23700;-77
2022/08/18 06:42:08;;;;;;;18.10;16.40;;;;;;;27.41;58.38;100139.88;108498;1273;22931;-77
2022/08/18 06:44:49;;;;;;;17.40;15.80;;;;;;;27.54;57.96;100142.96;108523;1270;22079;-73
2022/08/18 06:47:40;;;;;;;18.00;16.10;;;;;;;27.66;57.36;100148.86;108910;1270;23786;-73
2022/08/18 06:50:39;;;;;;;17.40;15.60;;;;;;;27.85;57.58;100147.79;109197;1266;23639;-74
2022/08/18 06:53:11;;;;;;;19.90;15.50;;;;;;;28.12;57.33;100149.27;109442;1260;23602;-76
2022/08/18 06:55:55;;;;;;;17.10;14.40;;;;;;;28.33;56.28;100149.13;109298;1261;23594;-76
2022/08/18 06:58:30;;;;;;;18.40;15.80;;;;;;;28.41;55.49;100152.49;109603;1259;23673;-77
2022/08/18 07:01:04;;;;;;;16.70;14.50;;;;;;;28.43;55.32;100152.25;109864;1259;22999;-78
2022/08/18 07:03:42;;;;;;;17.10;15.40;;;;;;;28.51;55.60;100148.02;109981;1259;21974;-77
2022/08/18 07:06:20;;;;;;;23.60;15.20;;;;;;;28.74;55.66;100147.85;110152;1259;21970;-75
2022/08/18 07:09:15;;;;;;;21.30;15.90;;;;;;;29.02;54.94;100147.95;110423;1253;22095;-77
2022/08/18 07:12:23;;;;;;;25.10;16.50;;;;;;;29.35;54.04;100147.27;110250;1256;21975;-74
2022/08/18 07:15:06;;;;;;;16.70;13.90;;;;;;;29.61;53.13;100152.71;110028;1256;23680;-75
2022/08/18 07:17:37;;;;;;;15.40;13.80;;;;;;;29.89;52.73;100152.80;110423;1251;21976;-75
2022/08/18 07:20:23;;;;;;;17.90;13.60;;;;;;;30.22;52.46;100151.26;110576;1253;21953;-75
2022/08/18 07:23:02;;;;;;;18.50;13.60;;;;;;;30.47;50.85;100154.51;110437;1254;23590;-76
2022/08/18 07:25:44;;;;;;;17.40;12.90;;;;;;;30.62;49.66;100155.80;110218;1254;21968;-77
2022/08/18 07:28:53;;;;;;;14.60;13.10;;;;;;;30.80;49.45;100154.13;110471;1256;23127;-77
2022/08/18 07:31:58;;;;;;;16.20;13.80;;;;;;;31.08;49.16;100155.77;109653;1259;23794;-77
2022/08/18 07:34:39;;;;;;;19.70;13.40;;;;;;;31.31;48.49;100149.92;108930;1267;22969;-75
2022/08/18 07:37:32;;;;;;;;;;;;;;;;;;;;;
2022/08/18 07:40:48;;;;;;;14.20;12.50;;;;;;;31.69;47.16;100148.47;109237;1264;22120;-78
2022/08/18 07:43:58;;;;;;;12.40;11.20;;;;;;;31.82;46.75;100145.29;108745;1270;23603;-78
2022/08/18 07:47:19;;;;;;;16.00;12.10;;;;;;;31.94;46.24;100142.55;108667;1270;23125;-78
2022/08/18 07:49:51;;;;;;;13.40;11.90;;;;;;;31.94;45.70;100139.10;108458;1276;22002;-78
2022/08/18 07:53:33;;;;;;;18.10;11.80;;;;;;;32.16;45.86;100134.56;108503;1276;22001;-79
2022/08/18 07:56:25;;;;;;;14.00;11.90;;;;;;;32.42;45.04;100133.70;108425;1276;24367;-78
2022/08/18 07:59:57;;;;;;;12.00;10.80;;;;;;;32.74;43.83;100131.98;108435;1276;23774;-79
2022/08/18 08:04:19;;;;;;;13.20;9.90;;;;;;;32.68;42.78;100131.23;107974;1282;22264;-78
2022/08/18 08:07:13;;;;;;;14.50;9.50;;;;;;;32.73;42.88;100131.79;107833;1279;23721;-77
2022/08/18 08:10:24;;;;;;;10.30;8.90;;;;;;;32.76;42.49;100131.37;108212;1276;22172;-78
2022/08/18 08:13:24;;;;;;;9.70;7.70;;;;;;;32.95;42.16;100137.36;108557;1273;22060;-78
2022/08/18 08:16:53;;;;;;;11.40;8.80;;;;;;;33.05;40.65;100142.23;108769;1270;21994;-77
2022/08/18 08:20:16;;;;;;;12.00;7.60;;;;;;;33.17;40.13;100143.12;108943;1260;21989;-78
2022/08/18 08:23:16;;;;;;;12.50;8.00;;;;;;;33.41;39.71;100146.69;109850;1262;23759;-78
2022/08/18 08:26:25;;;;;;;13.60;8.10;;;;;;;33.64;39.32;100152.05;109703;1259;22917;-78
2022/08/18 08:29:08;;;;;;;13.70;8.10;;;;;;;33.71;38.40;100159.86;109812;1259;22072;-77
2022/08/18 08:31:49;;;;;;;9.10;8.20;;;;;;;33.68;38.53;100157.88;110148;1259;21977;-77
2022/08/18 08:34:36;;;;;;;9.10;8.20;;;;;;;33.64;38.24;100162.14;109159;1265;24293;-78
2022/08/18 08:37:18;;;;;;;9.00;8.10;;;;;;;33.72;38.55;100159.05;109213;1265;22010;-78
2022/08/18 08:40:00;;;;;;;12.50;8.80;;;;;;;33.76;37.78;100156.23;108979;1265;21994;-77
2022/08/18 08:42:39;;;;;;;;;;;;;;;33.67;37.70;100159.77;108906;1268;24163;-78
2022/08/18 08:45:20;;;;;;;11.20;7.70;;;;;;;33.51;38.31;100159.19;108894;1268;23627;-78
2022/08/18 08:48:27;;;;;;;10.50;9.50;;;;;;;33.65;38.57;100157.17;108860;1268;22086;-78
2022/08/18 08:51:30;;;;;;;12.40;9.60;;;;;;;33.83;37.83;100158.08;109070;1267;21994;-78
2022/08/18 08:54:37;;;;;;;12.00;8.00;;;;;;;33.73;37.29;100158.44;108510;1274;21992;-76
2022/08/18 08:57:14;;;;;;;12.00;7.70;;;;;;;33.59;37.50;100155.69;108491;1274;22065;-78
2022/08/18 08:59:48;;;;;;;12.60;8.40;;;;;;;33.60;37.73;100154.45;108772;1262;22004;-77
2022/08/18 09:03:38;;;;;;;10.60;8.10;;;;;;;33.70;37.67;100155.06;109593;1261;21969;-77
2022/08/18 09:06:34;;;;;;;12.30;8.10;;;;;;;33.82;37.30;100159.50;109073;1267;21991;-78
2022/08/18 09:09:30;;;;;;;9.00;7.30;;;;;;;33.87;37.01;100161.15;108978;1264;23039;-78
2022/08/18 09:12:21;;;;;;;8.00;7.00;;;;;;;34.01;36.70;100160.70;109636;1257;22170;-78
2022/08/18 09:15:26;;;;;;;10.50;7.30;;;;;;;33.91;36.03;100161.92;110206;1259;23784;-78
2022/08/18 09:18:06;;;;;;;9.60;8.00;;;;;;;33.81;36.61;100161.91;109899;1261;24280;-77
2022/08/18 09:21:10;;;;;;;10.70;7.40;;;;;;;33.81;36.15;100161.77;109782;1262;23729;-77
2022/08/18 09:23:47;;;;;;;8.70;7.30;;;;;;;33.76;36.48;100167.10;109812;1262;22260;-77
2022/08/18 09:26:34;;;;;;;10.20;7.80;;;;;;;33.83;36.73;100157.91;109813;1262;23047;-78
2022/08/18 09:29:36;;;;;;;10.20;7.10;;;;;;;33.92;36.32;100161.27;109644;1263;23685;-77
2022/08/18 09:32:49;;;;;;;12.70;8.20;;;;;;;33.99;36.59;100156.30;109380;1266;21999;-78
2022/08/18 09:35:48;;;;;;;9.10;7.70;;;;;;;34.33;36.53;100153.27;108846;1268;21982;-78
2022/08/18 09:42:26;;;;;;;10.30;7.70;;;;;;;34.58;35.28;100147.84;108875;1270;22017;-75
2022/08/18 09:45:27;;;;;;;8.20;6.90;;;;;;;34.51;35.00;100147.04;108794;1270;23796;-77
2022/08/18 09:48:12;;;;;;;10.00;7.70;;;;;;;34.46;35.39;100144.25;108807;1270;22146;-76
2022/08/18 09:51:17;;;;;;;14.70;7.60;;;;;;;34.50;35.11;100144.88;108912;1270;22840;-76
2022/08/18 09:54:06;;;;;;;14.30;7.90;;;;;;;34.39;34.82;100148.34;108871;1270;21992;-79
2022/08/18 09:56:51;;;;;;;11.40;8.50;;;;;;;34.26;35.03;100149.48;108796;1270;23109;-77
2022/08/18 09:59:32;;;;;;;9.50;8.20;;;;;;;34.27;35.38;100147.98;108907;1270;22004;-75
2022/08/18 10:02:32;;;;;;;10.70;8.50;;;;;;;34.39;35.58;100145.77;108917;1270;23692;-83
2022/08/18 10:05:38;;;;;;;14.70;9.60;;;;;;;34.40;35.09;100148.77;108870;1270;21981;-75
2022/08/18 10:09:00;;;;;;;11.30;8.40;;;;;;;33.97;35.50;100147.31;108862;1268;21966;-77
2022/08/18 10:12:24;;;;;;;8.90;7.90;;;;;;;33.44;36.45;100146.63;109226;1262;23664;-77
2022/08/18 10:15:12;;;;;;;9.10;8.20;;;;;;;33.11;37.43;100144.89;109619;1262;21985;-76
2022/08/18 10:18:29;;;;;;;13.20;9.40;;;;;;;32.93;37.63;100143.11;109734;1262;22554;-76
2022/08/18 10:21:12;;;;;;;14.70;8.50;;;;;;;32.69;38.28;100132.45;109797;1262;22039;-75
2022/08/18 10:23:55;;;;;;;10.80;8.20;;;;;;;32.44;39.52;100128.95;109916;1262;23033;-78
2022/08/18 10:26:49;;;;;;;11.30;8.90;;;;;;;32.42;39.93;100132.91;109869;1261;22081;-77
2022/08/18 10:29:22;;;;;;;12.50;11.20;;;;;;;32.56;39.66;100133.96;109939;1262;21992;-77
2022/08/18 10:32:15;;;;;;;11.00;8.50;;;;;;;32.61;38.54;100130.04;109691;1262;23175;-77
2022/08/18 10:34:52;;;;;;;22.70;11.50;;;;;;;32.42;39.02;100128.90;109147;1267;21972;-77
2022/08/18 10:37:36;;;;;;;12.70;8.40;;;;;;;32.41;39.73;100128.63;109057;1267;21982;-77
2022/08/18 10:40:08;;;;;;;9.40;8.40;;;;;;;32.37;39.35;100127.12;109210;1267;23547;-76
2022/08/18 10:42:50;;;;;;;8.90;8.10;;;;;;;32.31;39.05;100124.77;109615;1267;22454;-77
2022/08/18 10:45:33;;;;;;;11.90;8.30;;;;;;;32.27;39.01;100120.24;109552;1262;23100;-77
2022/08/18 10:48:29;;;;;;;10.10;9.10;;;;;;;32.27;38.88;100119.17;109532;1256;23078;-77
2022/08/18 10:51:07;;;;;;;8.40;7.70;;;;;;;32.32;38.92;100108.92;110263;1258;23724;-76
2022/08/18 10:54:15;;;;;;;8.10;7.20;;;;;;;32.42;39.09;100108.85;110548;1256;22753;-76
2022/08/18 10:56:54;;;;;;;12.50;8.10;;;;;;;32.43;38.80;100101.48;110477;1256;21976;-77
2022/08/18 10:59:30;;;;;;;9.90;7.10;;;;;;;32.41;38.53;100098.00;110344;1256;21964;-78
2022/08/18 11:02:51;;;;;;;10.00;6.90;;;;;;;32.36;38.62;100092.45;110335;1256;22465;-77
2022/08/18 11:05:30;;;;;;;8.20;7.40;;;;;;;32.27;38.42;100088.06;110452;1256;22250;-78
2022/08/18 11:08:06;;;;;;;7.50;6.70;;;;;;;32.10;38.13;100094.27;110245;1256;21959;-77
2022/08/18 11:10:49;;;;;;;12.50;7.40;;;;;;;31.89;38.61;100093.59;109436;1262;21997;-78
2022/08/18 11:14:46;;;;;;;11.10;8.10;;;;;;;31.79;39.27;100092.86;110210;1256;22061;-77
2022/08/18 11:17:41;;;;;;;9.20;8.10;;;;;;;31.74;39.58;100084.92;109864;1262;22002;-78
2022/08/18 11:20:15;;;;;;;11.10;7.80;;;;;;;31.70;39.55;100086.80;109637;1262;21977;-76
2022/08/18 11:22:55;;;;;;;9.90;7.60;;;;;;;31.65;39.56;100093.52;109767;1262;22014;-76
2022/08/18 11:25:33;;;;;;;9.40;7.50;;;;;;;31.52;39.29;100084.91;109843;1262;23719;-76
2022/08/18 11:28:14;;;;;;;11.30;7.90;;;;;;;31.41;39.33;100081.94;110012;1259;21991;-76
2022/08/18 11:30:53;;;;;;;12.70;7.30;;;;;;;31.23;39.38;100077.05;110157;1258;21973;-76
2022/08/18 11:33:22;;;;;;;9.60;8.10;;;;;;;31.11;39.92;100067.17;109769;1262;23058;-76
2022/08/18 11:35:58;;;;;;;11.00;7.10;;;;;;;31.13;40.56;100062.38;109645;1262;22131;-76
2022/08/18 11:38:30;;;;;;;13.20;8.50;;;;;;;31.09;40.03;100056.16;109781;1262;21983;-76
2022/08/18 11:41:23;;;;;;;13.00;7.70;;;;;;;31.04;39.92;100054.88;109606;1262;22267;-75
2022/08/18 11:44:20;;;;;;;9.30;8.10;;;;;;;30.94;40.02;100051.89;109895;1260;22104;-75
2022/08/18 11:47:06;;;;;;;8.00;7.30;;;;;;;30.91;40.20;100051.27;109785;1261;23659;-76
2022/08/18 11:49:48;;;;;;;8.30;7.20;;;;;;;30.89;40.06;100048.74;109890;1262;21989;-77
2022/08/18 11:52:28;;;;;;;12.40;7.30;;;;;;;30.86;40.03;100043.54;110523;1250;22777;-76
2022/08/18 11:55:05;;;;;;;9.70;7.00;;;;;;;30.83;39.91;100047.39;110403;1256;23706;-76
2022/08/18 11:57:57;;;;;;;12.10;7.20;;;;;;;30.79;39.98;100050.59;110379;1256;21964;-78
2022/08/18 12:00:46;;;;;;;12.40;8.10;;;;;;;30.77;39.80;100047.08;109557;1261;23041;-78
2022/08/18 12:03:18;;;;;;;8.60;7.70;;;;;;;30.81;39.86;100045.24;109064;1267;23559;-76
2022/08/18 12:05:55;;;;;;;8.90;7.20;;;;;;;30.92;40.02;100044.75;109137;1267;23020;-76
2022/08/18 12:08:36;;;;;;;9.60;6.50;;;;;;;30.94;39.21;100046.11;108657;1270;22782;-77
2022/08/18 12:11:37;;;;;;;15.40;8.10;;;;;;;30.93;39.02;100048.22;108740;1270;22443;-76
2022/08/18 12:14:22;;;;;;;10.30;9.20;;;;;;;30.92;39.19;100044.36;109069;1266;22077;-76
2022/08/18 12:17:03;;;;;;;12.70;8.80;;;;;;;30.86;39.39;100029.20;109210;1265;22166;-76
2022/08/18 12:19:34;;;;;;;11.20;9.00;;;;;;;30.84;39.81;100021.12;109903;1259;22769;-78
2022/08/18 12:22:16;;;;;;;10.50;9.50;;;;;;;30.83;39.91;100022.89;110260;1254;21962;-75
2022/08/18 12:24:46;;;;;;;9.60;8.60;;;;;;;30.78;39.81;100028.14;110610;1253;22411;-76
2022/08/18 12:27:21;;;;;;;12.60;9.70;;;;;;;30.66;39.60;100032.32;110589;1250;21960;-78
2022/08/18 12:29:54;;;;;;;13.20;9.00;;;;;;;30.53;39.66;100019.73;110845;1250;23660;-77
2022/08/18 12:32:28;;;;;;;9.60;8.60;;;;;;;30.51;39.83;100017.59;110705;1251;23059;-76
2022/08/18 12:35:17;;;;;;;13.20;7.90;;;;;;;30.54;39.61;100017.48;111001;1249;24124;-76
2022/08/18 12:38:06;;;;;;;12.60;9.40;;;;;;;30.56;39.34;100011.85;110575;1250;22409;-77
2022/08/18 12:40:56;;;;;;;14.60;10.20;;;;;;;30.67;39.39;100012.51;110881;1250;21960;-80
2022/08/18 12:43:27;;;;;;;12.90;9.80;;;;;;;30.73;38.92;100008.39;110972;1248;23622;-76
2022/08/18 12:46:01;;;;;;;13.30;9.00;;;;;;;30.75;39.22;100004.66;111002;1247;22080;-76
2022/08/18 12:48:31;;;;;;;15.00;10.00;;;;;;;30.75;39.23;100006.23;110982;1247;22745;-76
2022/08/18 12:51:06;;;;;;;15.90;9.60;;;;;;;30.72;39.07;100009.77;110975;1247;23770;-77
2022/08/18 12:53:39;;;;;;;13.90;9.80;;;;;;;30.68;39.10;100003.28;110896;1250;21955;-77
2022/08/18 12:56:30;;;;;;;12.60;10.40;;;;;;;30.70;38.94;99999.14;111194;1249;21960;-73